sensor_id;sensor_type;location;lat;lon;timestamp;P1;durP1;ratioP1;P2;durP2;ratioP2
55756;SDS011;41676;44.610;44.078;2023-04-30T00:03:03;2.85;;;1.90;;
55756;SDS011;41676;44.610;44.078;2023-04-30T00:08:04;3.42;;;1.85;;
55756;SDS011;41676;44.610;44.078;2023-04-30T00:13:05;3.47;;;2.20;;
55756;SDS011;41676;44.610;44.078;2023-04-30T00:18:06;2.85;;;2.17;;
55756;SDS011;41676;44.610;44.078;2023-04-30T00:23:06;3.72;;;2.53;;
55756;SDS011;41676;44.610;44.078;2023-04-30T00:28:07;3.33;;;2.17;;
55756;SDS011;41676;44.610;44.078;2023-04-30T00:33:08;5.03;;;2.58;;
55756;SDS011;41676;44.610;44.078;2023-04-30T00:38:09;4.43;;;3.25;;
55756;SDS011;41676;44.610;44.078;2023-04-30T00:43:09;5.03;;;3.55;;
55756;SDS011;41676;44.610;44.078;2023-04-30T00:48:10;5.32;;;4.35;;
55756;SDS011;41676;44.610;44.078;2023-04-30T00:53:11;5.80;;;4.32;;
55756;SDS011;41676;44.610;44.078;2023-04-30T00:58:12;6.15;;;4.20;;
55756;SDS011;41676;44.610;44.078;2023-04-30T01:03:13;8.48;;;4.68;;
55756;SDS011;41676;44.610;44.078;2023-04-30T01:08:14;5.53;;;4.57;;
55756;SDS011;41676;44.610;44.078;2023-04-30T01:13:21;5.85;;;4.10;;
55756;SDS011;41676;44.610;44.078;2023-04-30T01:18:33;4.97;;;3.83;;
55756;SDS011;41676;44.610;44.078;2023-04-30T01:29:01;5.68;;;4.10;;
55756;SDS011;41676;44.610;44.078;2023-04-30T01:34:03;6.72;;;4.95;;
55756;SDS011;41676;44.610;44.078;2023-04-30T01:39:14;9.02;;;4.82;;
55756;SDS011;41676;44.610;44.078;2023-04-30T01:44:23;6.68;;;5.13;;
55756;SDS011;41676;44.610;44.078;2023-04-30T01:54:57;6.60;;;4.78;;
55756;SDS011;41676;44.610;44.078;2023-04-30T02:00:04;6.28;;;4.25;;
55756;SDS011;41676;44.610;44.078;2023-04-30T02:05:10;4.97;;;3.65;;
55756;SDS011;41676;44.610;44.078;2023-04-30T02:10:10;5.70;;;3.75;;
55756;SDS011;41676;44.610;44.078;2023-04-30T02:15:11;4.78;;;3.58;;
55756;SDS011;41676;44.610;44.078;2023-04-30T02:20:12;4.65;;;4.13;;
55756;SDS011;41676;44.610;44.078;2023-04-30T02:25:13;5.10;;;4.13;;
55756;SDS011;41676;44.610;44.078;2023-04-30T02:30:14;5.25;;;4.32;;
55756;SDS011;41676;44.610;44.078;2023-04-30T02:35:15;7.28;;;4.85;;
55756;SDS011;41676;44.610;44.078;2023-04-30T02:40:16;8.45;;;4.68;;
55756;SDS011;41676;44.610;44.078;2023-04-30T02:45:16;6.82;;;5.32;;
55756;SDS011;41676;44.610;44.078;2023-04-30T02:50:17;7.40;;;5.20;;
55756;SDS011;41676;44.610;44.078;2023-04-30T02:55:18;5.75;;;5.10;;
55756;SDS011;41676;44.610;44.078;2023-04-30T03:00:19;6.05;;;5.25;;
55756;SDS011;41676;44.610;44.078;2023-04-30T03:05:20;6.95;;;5.90;;
55756;SDS011;41676;44.610;44.078;2023-04-30T03:10:20;8.32;;;6.47;;
55756;SDS011;41676;44.610;44.078;2023-04-30T03:15:21;8.18;;;6.35;;
55756;SDS011;41676;44.610;44.078;2023-04-30T03:20:22;7.45;;;5.90;;
55756;SDS011;41676;44.610;44.078;2023-04-30T03:25:23;8.15;;;6.03;;
55756;SDS011;41676;44.610;44.078;2023-04-30T03:30:24;7.43;;;5.90;;
55756;SDS011;41676;44.610;44.078;2023-04-30T03:35:24;7.53;;;6.72;;
55756;SDS011;41676;44.610;44.078;2023-04-30T03:40:25;9.45;;;6.80;;
55756;SDS011;41676;44.610;44.078;2023-04-30T03:45:26;8.60;;;7.30;;
55756;SDS011;41676;44.610;44.078;2023-04-30T03:50:27;9.85;;;8.00;;
55756;SDS011;41676;44.610;44.078;2023-04-30T03:55:27;8.25;;;7.25;;
55756;SDS011;41676;44.610;44.078;2023-04-30T04:00:28;7.30;;;6.10;;
55756;SDS011;41676;44.610;44.078;2023-04-30T04:05:30;10.45;;;5.97;;
55756;SDS011;41676;44.610;44.078;2023-04-30T04:10:31;7.15;;;6.32;;
55756;SDS011;41676;44.610;44.078;2023-04-30T04:29:27;7.35;;;6.10;;
55756;SDS011;41676;44.610;44.078;2023-04-30T04:51:36;8.75;;;7.75;;
55756;SDS011;41676;44.610;44.078;2023-04-30T04:56:38;8.32;;;7.43;;
55756;SDS011;41676;44.610;44.078;2023-04-30T05:01:40;8.02;;;7.22;;
55756;SDS011;41676;44.610;44.078;2023-04-30T05:06:41;8.77;;;7.88;;
55756;SDS011;41676;44.610;44.078;2023-04-30T05:11:41;7.97;;;7.18;;
55756;SDS011;41676;44.610;44.078;2023-04-30T05:16:43;9.93;;;7.82;;
55756;SDS011;41676;44.610;44.078;2023-04-30T05:21:44;10.48;;;7.75;;
55756;SDS011;41676;44.610;44.078;2023-04-30T05:26:46;7.75;;;5.60;;
55756;SDS011;41676;44.610;44.078;2023-04-30T05:31:46;6.97;;;5.00;;
55756;SDS011;41676;44.610;44.078;2023-04-30T05:36:48;7.85;;;5.15;;
55756;SDS011;41676;44.610;44.078;2023-04-30T05:41:49;5.97;;;4.70;;
55756;SDS011;41676;44.610;44.078;2023-04-30T05:46:50;6.25;;;4.55;;
55756;SDS011;41676;44.610;44.078;2023-04-30T05:51:50;5.13;;;3.90;;
55756;SDS011;41676;44.610;44.078;2023-04-30T05:56:51;5.25;;;3.92;;
55756;SDS011;41676;44.610;44.078;2023-04-30T06:01:52;7.25;;;4.22;;
55756;SDS011;41676;44.610;44.078;2023-04-30T06:06:53;8.40;;;4.53;;
55756;SDS011;41676;44.610;44.078;2023-04-30T06:11:53;5.55;;;4.35;;
55756;SDS011;41676;44.610;44.078;2023-04-30T06:16:55;6.20;;;3.90;;
55756;SDS011;41676;44.610;44.078;2023-04-30T06:21:55;5.13;;;4.00;;
55756;SDS011;41676;44.610;44.078;2023-04-30T06:26:56;4.78;;;3.95;;
55756;SDS011;41676;44.610;44.078;2023-04-30T06:31:57;6.03;;;4.40;;
55756;SDS011;41676;44.610;44.078;2023-04-30T06:36:58;5.57;;;3.60;;
55756;SDS011;41676;44.610;44.078;2023-04-30T06:41:58;4.75;;;3.80;;
55756;SDS011;41676;44.610;44.078;2023-04-30T06:46:59;4.40;;;3.50;;
55756;SDS011;41676;44.610;44.078;2023-04-30T06:52:00;5.68;;;4.00;;
55756;SDS011;41676;44.610;44.078;2023-04-30T06:57:02;9.88;;;4.38;;
55756;SDS011;41676;44.610;44.078;2023-04-30T07:02:02;19.80;;;4.18;;
55756;SDS011;41676;44.610;44.078;2023-04-30T07:07:03;4.80;;;2.78;;
55756;SDS011;41676;44.610;44.078;2023-04-30T07:12:04;4.35;;;2.30;;
55756;SDS011;41676;44.610;44.078;2023-04-30T07:17:05;3.97;;;2.10;;
55756;SDS011;41676;44.610;44.078;2023-04-30T07:22:05;8.93;;;2.75;;
55756;SDS011;41676;44.610;44.078;2023-04-30T07:27:06;2.03;;;1.20;;
55756;SDS011;41676;44.610;44.078;2023-04-30T07:32:07;2.25;;;1.02;;
55756;SDS011;41676;44.610;44.078;2023-04-30T07:37:08;2.53;;;0.90;;
55756;SDS011;41676;44.610;44.078;2023-04-30T07:42:09;1.65;;;0.70;;
55756;SDS011;41676;44.610;44.078;2023-04-30T07:47:10;1.00;;;0.50;;
55756;SDS011;41676;44.610;44.078;2023-04-30T07:52:11;2.20;;;0.75;;
55756;SDS011;41676;44.610;44.078;2023-04-30T07:57:12;2.30;;;0.95;;
55756;SDS011;41676;44.610;44.078;2023-04-30T08:02:13;3.97;;;0.90;;
55756;SDS011;41676;44.610;44.078;2023-04-30T08:07:14;2.65;;;0.73;;
55756;SDS011;41676;44.610;44.078;2023-04-30T08:17:18;0.73;;;0.32;;
55756;SDS011;41676;44.610;44.078;2023-04-30T08:22:19;12.70;;;1.75;;
55756;SDS011;41676;44.610;44.078;2023-04-30T08:27:20;4.78;;;0.95;;
55756;SDS011;41676;44.610;44.078;2023-04-30T08:32:21;1.42;;;0.60;;
55756;SDS011;41676;44.610;44.078;2023-04-30T08:37:22;1.75;;;0.50;;
55756;SDS011;41676;44.610;44.078;2023-04-30T08:42:29;1.42;;;0.50;;
55756;SDS011;41676;44.610;44.078;2023-04-30T08:47:31;1.67;;;0.50;;
55756;SDS011;41676;44.610;44.078;2023-04-30T08:52:33;1.88;;;0.60;;
55756;SDS011;41676;44.610;44.078;2023-04-30T08:57:37;3.20;;;0.68;;
55756;SDS011;41676;44.610;44.078;2023-04-30T09:02:39;1.63;;;0.52;;
55756;SDS011;41676;44.610;44.078;2023-04-30T09:07:44;4.57;;;1.63;;
55756;SDS011;41676;44.610;44.078;2023-04-30T09:13:04;1.40;;;0.50;;
55756;SDS011;41676;44.610;44.078;2023-04-30T09:23:17;1.50;;;0.40;;
55756;SDS011;41676;44.610;44.078;2023-04-30T09:28:18;3.95;;;0.65;;
55756;SDS011;41676;44.610;44.078;2023-04-30T09:33:28;2.22;;;0.52;;
55756;SDS011;41676;44.610;44.078;2023-04-30T09:38:45;3.30;;;0.70;;
55756;SDS011;41676;44.610;44.078;2023-04-30T09:43:46;4.70;;;1.02;;
55756;SDS011;41676;44.610;44.078;2023-04-30T09:48:55;8.68;;;1.08;;
55756;SDS011;41676;44.610;44.078;2023-04-30T09:53:57;2.15;;;0.40;;
55756;SDS011;41676;44.610;44.078;2023-04-30T09:59:02;3.38;;;0.40;;
55756;SDS011;41676;44.610;44.078;2023-04-30T10:04:04;1.40;;;0.30;;
55756;SDS011;41676;44.610;44.078;2023-04-30T10:09:05;2.05;;;0.50;;
55756;SDS011;41676;44.610;44.078;2023-04-30T10:14:12;1.25;;;0.40;;
55756;SDS011;41676;44.610;44.078;2023-04-30T10:19:18;1.35;;;0.30;;
55756;SDS011;41676;44.610;44.078;2023-04-30T10:24:22;1.00;;;0.40;;
55756;SDS011;41676;44.610;44.078;2023-04-30T10:29:23;2.40;;;0.68;;
55756;SDS011;41676;44.610;44.078;2023-04-30T10:40:09;19.08;;;5.45;;
55756;SDS011;41676;44.610;44.078;2023-04-30T10:45:10;6.43;;;0.70;;
55756;SDS011;41676;44.610;44.078;2023-04-30T10:50:11;5.40;;;2.08;;
55756;SDS011;41676;44.610;44.078;2023-04-30T10:55:15;6.38;;;2.75;;
55756;SDS011;41676;44.610;44.078;2023-04-30T11:00:17;3.28;;;1.15;;
55756;SDS011;41676;44.610;44.078;2023-04-30T11:05:18;3.78;;;1.63;;
55756;SDS011;41676;44.610;44.078;2023-04-30T11:10:20;7.70;;;4.68;;
55756;SDS011;41676;44.610;44.078;2023-04-30T11:15:26;7.20;;;1.20;;
55756;SDS011;41676;44.610;44.078;2023-04-30T11:20:31;1.90;;;0.70;;
55756;SDS011;41676;44.610;44.078;2023-04-30T11:25:38;2.78;;;1.17;;
55756;SDS011;41676;44.610;44.078;2023-04-30T11:52:52;1.48;;;0.45;;
55756;SDS011;41676;44.610;44.078;2023-04-30T11:57:54;2.58;;;0.40;;
55756;SDS011;41676;44.610;44.078;2023-04-30T12:02:58;1.38;;;0.32;;
55756;SDS011;41676;44.610;44.078;2023-04-30T12:13:05;2.72;;;1.00;;
55756;SDS011;41676;44.610;44.078;2023-04-30T12:18:10;3.53;;;0.80;;
55756;SDS011;41676;44.610;44.078;2023-04-30T12:23:12;1.15;;;0.50;;
55756;SDS011;41676;44.610;44.078;2023-04-30T12:28:13;3.10;;;1.00;;
55756;SDS011;41676;44.610;44.078;2023-04-30T12:33:16;5.15;;;1.10;;
55756;SDS011;41676;44.610;44.078;2023-04-30T12:38:17;4.18;;;1.00;;
55756;SDS011;41676;44.610;44.078;2023-04-30T12:43:18;6.95;;;0.68;;
55756;SDS011;41676;44.610;44.078;2023-04-30T12:48:21;1.60;;;0.50;;
55756;SDS011;41676;44.610;44.078;2023-04-30T12:53:23;1.65;;;0.35;;
55756;SDS011;41676;44.610;44.078;2023-04-30T12:58:24;5.97;;;1.70;;
55756;SDS011;41676;44.610;44.078;2023-04-30T13:03:30;3.42;;;1.67;;
55756;SDS011;41676;44.610;44.078;2023-04-30T13:08:31;3.97;;;0.60;;
55756;SDS011;41676;44.610;44.078;2023-04-30T13:13:31;3.28;;;0.60;;
55756;SDS011;41676;44.610;44.078;2023-04-30T13:18:32;10.50;;;1.73;;
55756;SDS011;41676;44.610;44.078;2023-04-30T13:23:33;4.97;;;2.00;;
55756;SDS011;41676;44.610;44.078;2023-04-30T13:47:25;2.63;;;0.80;;
55756;SDS011;41676;44.610;44.078;2023-04-30T13:52:26;6.05;;;0.77;;
55756;SDS011;41676;44.610;44.078;2023-04-30T13:57:26;2.05;;;0.57;;
55756;SDS011;41676;44.610;44.078;2023-04-30T14:02:29;4.78;;;1.20;;
55756;SDS011;41676;44.610;44.078;2023-04-30T14:07:30;3.90;;;1.10;;
55756;SDS011;41676;44.610;44.078;2023-04-30T14:12:31;4.53;;;0.90;;
55756;SDS011;41676;44.610;44.078;2023-04-30T14:17:32;2.17;;;1.00;;
55756;SDS011;41676;44.610;44.078;2023-04-30T14:22:33;4.05;;;0.70;;
55756;SDS011;41676;44.610;44.078;2023-04-30T14:27:38;1.13;;;0.40;;
55756;SDS011;41676;44.610;44.078;2023-04-30T14:32:39;3.10;;;0.77;;
55756;SDS011;41676;44.610;44.078;2023-04-30T14:37:40;1.30;;;0.47;;
55756;SDS011;41676;44.610;44.078;2023-04-30T14:42:40;0.88;;;0.32;;
55756;SDS011;41676;44.610;44.078;2023-04-30T14:47:42;2.15;;;0.50;;
55756;SDS011;41676;44.610;44.078;2023-04-30T14:52:42;7.82;;;4.93;;
55756;SDS011;41676;44.610;44.078;2023-04-30T14:57:43;3.83;;;1.10;;
55756;SDS011;41676;44.610;44.078;2023-04-30T15:02:44;7.57;;;1.55;;
55756;SDS011;41676;44.610;44.078;2023-04-30T15:07:45;2.72;;;1.00;;
55756;SDS011;41676;44.610;44.078;2023-04-30T15:12:46;1.98;;;0.82;;
55756;SDS011;41676;44.610;44.078;2023-04-30T15:17:47;3.70;;;1.17;;
55756;SDS011;41676;44.610;44.078;2023-04-30T15:22:51;13.40;;;6.80;;
55756;SDS011;41676;44.610;44.078;2023-04-30T15:27:53;30.48;;;14.88;;
55756;SDS011;41676;44.610;44.078;2023-04-30T15:32:55;5.93;;;2.58;;
55756;SDS011;41676;44.610;44.078;2023-04-30T15:37:56;6.68;;;1.63;;
55756;SDS011;41676;44.610;44.078;2023-04-30T15:42:56;2.53;;;0.68;;
55756;SDS011;41676;44.610;44.078;2023-04-30T15:47:57;2.63;;;0.60;;
55756;SDS011;41676;44.610;44.078;2023-04-30T15:52:59;1.80;;;0.77;;
55756;SDS011;41676;44.610;44.078;2023-04-30T15:58:00;3.25;;;1.10;;
55756;SDS011;41676;44.610;44.078;2023-04-30T16:03:01;3.60;;;1.23;;
55756;SDS011;41676;44.610;44.078;2023-04-30T16:08:02;1.35;;;0.70;;
55756;SDS011;41676;44.610;44.078;2023-04-30T16:13:02;1.98;;;0.50;;
55756;SDS011;41676;44.610;44.078;2023-04-30T16:18:03;1.40;;;0.50;;
55756;SDS011;41676;44.610;44.078;2023-04-30T16:23:04;2.03;;;0.63;;
55756;SDS011;41676;44.610;44.078;2023-04-30T16:28:05;3.20;;;1.00;;
55756;SDS011;41676;44.610;44.078;2023-04-30T16:33:06;1.70;;;0.77;;
55756;SDS011;41676;44.610;44.078;2023-04-30T16:38:07;6.43;;;3.17;;
55756;SDS011;41676;44.610;44.078;2023-04-30T16:43:08;4.90;;;2.22;;
55756;SDS011;41676;44.610;44.078;2023-04-30T16:53:32;5.10;;;0.85;;
55756;SDS011;41676;44.610;44.078;2023-04-30T16:58:33;2.45;;;0.80;;
55756;SDS011;41676;44.610;44.078;2023-04-30T17:03:34;7.63;;;5.88;;
55756;SDS011;41676;44.610;44.078;2023-04-30T17:08:35;3.40;;;1.80;;
55756;SDS011;41676;44.610;44.078;2023-04-30T17:13:36;3.03;;;1.10;;
55756;SDS011;41676;44.610;44.078;2023-04-30T17:18:37;4.57;;;1.20;;
55756;SDS011;41676;44.610;44.078;2023-04-30T17:28:48;2.67;;;1.10;;
55756;SDS011;41676;44.610;44.078;2023-04-30T17:33:49;3.67;;;1.45;;
55756;SDS011;41676;44.610;44.078;2023-04-30T17:38:50;1.27;;;0.75;;
55756;SDS011;41676;44.610;44.078;2023-04-30T17:43:50;2.75;;;1.10;;
55756;SDS011;41676;44.610;44.078;2023-04-30T17:48:51;3.83;;;1.08;;
55756;SDS011;41676;44.610;44.078;2023-04-30T17:53:52;2.67;;;1.00;;
55756;SDS011;41676;44.610;44.078;2023-04-30T17:58:52;2.63;;;0.90;;
55756;SDS011;41676;44.610;44.078;2023-04-30T18:03:57;3.35;;;1.10;;
55756;SDS011;41676;44.610;44.078;2023-04-30T18:08:59;3.35;;;1.20;;
55756;SDS011;41676;44.610;44.078;2023-04-30T18:14:01;3.97;;;1.00;;
55756;SDS011;41676;44.610;44.078;2023-04-30T18:19:03;4.80;;;1.30;;
55756;SDS011;41676;44.610;44.078;2023-04-30T18:24:04;5.05;;;1.85;;
55756;SDS011;41676;44.610;44.078;2023-04-30T18:29:05;3.85;;;1.20;;
55756;SDS011;41676;44.610;44.078;2023-04-30T18:34:07;1.85;;;0.90;;
55756;SDS011;41676;44.610;44.078;2023-04-30T18:39:08;3.05;;;1.17;;
55756;SDS011;41676;44.610;44.078;2023-04-30T18:44:11;5.80;;;1.17;;
55756;SDS011;41676;44.610;44.078;2023-04-30T18:49:12;2.38;;;1.25;;
55756;SDS011;41676;44.610;44.078;2023-04-30T18:54:13;4.70;;;1.40;;
55756;SDS011;41676;44.610;44.078;2023-04-30T18:59:14;5.63;;;1.52;;
55756;SDS011;41676;44.610;44.078;2023-04-30T19:04:15;5.45;;;1.70;;
55756;SDS011;41676;44.610;44.078;2023-04-30T19:09:16;6.68;;;2.20;;
55756;SDS011;41676;44.610;44.078;2023-04-30T19:14:17;4.70;;;2.08;;
55756;SDS011;41676;44.610;44.078;2023-04-30T19:19:18;3.92;;;1.92;;
55756;SDS011;41676;44.610;44.078;2023-04-30T19:24:18;3.08;;;1.70;;
55756;SDS011;41676;44.610;44.078;2023-04-30T19:29:20;9.55;;;2.33;;
55756;SDS011;41676;44.610;44.078;2023-04-30T19:48:21;3.33;;;1.50;;
55756;SDS011;41676;44.610;44.078;2023-04-30T19:53:23;2.78;;;1.40;;
55756;SDS011;41676;44.610;44.078;2023-04-30T19:58:26;2.50;;;1.40;;
55756;SDS011;41676;44.610;44.078;2023-04-30T20:03:27;4.28;;;1.50;;
55756;SDS011;41676;44.610;44.078;2023-04-30T20:08:28;4.55;;;1.15;;
55756;SDS011;41676;44.610;44.078;2023-04-30T20:13:29;2.92;;;1.33;;
55756;SDS011;41676;44.610;44.078;2023-04-30T20:18:29;7.30;;;1.60;;
55756;SDS011;41676;44.610;44.078;2023-04-30T20:23:31;5.63;;;1.77;;
55756;SDS011;41676;44.610;44.078;2023-04-30T20:28:32;6.50;;;2.05;;
55756;SDS011;41676;44.610;44.078;2023-04-30T20:33:33;4.28;;;2.08;;
55756;SDS011;41676;44.610;44.078;2023-04-30T20:38:34;9.63;;;2.00;;
55756;SDS011;41676;44.610;44.078;2023-04-30T20:43:34;5.85;;;2.40;;
55756;SDS011;41676;44.610;44.078;2023-04-30T20:48:35;4.40;;;2.47;;
55756;SDS011;41676;44.610;44.078;2023-04-30T21:17:00;2.70;;;1.60;;
55756;SDS011;41676;44.610;44.078;2023-04-30T21:22:01;4.00;;;1.52;;
55756;SDS011;41676;44.610;44.078;2023-04-30T21:27:01;4.88;;;1.40;;
55756;SDS011;41676;44.610;44.078;2023-04-30T21:32:03;4.07;;;1.40;;
55756;SDS011;41676;44.610;44.078;2023-04-30T21:37:04;3.88;;;1.48;;
55756;SDS011;41676;44.610;44.078;2023-04-30T21:42:05;3.67;;;1.45;;
55756;SDS011;41676;44.610;44.078;2023-04-30T21:47:05;3.40;;;1.48;;
55756;SDS011;41676;44.610;44.078;2023-04-30T21:52:09;4.75;;;1.38;;
55756;SDS011;41676;44.610;44.078;2023-04-30T21:57:10;3.70;;;1.33;;
55756;SDS011;41676;44.610;44.078;2023-04-30T22:02:11;3.90;;;1.45;;
55756;SDS011;41676;44.610;44.078;2023-04-30T22:07:14;3.90;;;1.73;;
55756;SDS011;41676;44.610;44.078;2023-04-30T22:12:15;4.97;;;1.55;;
55756;SDS011;41676;44.610;44.078;2023-04-30T22:17:18;5.07;;;1.77;;
55756;SDS011;41676;44.610;44.078;2023-04-30T22:22:19;3.60;;;1.50;;
55756;SDS011;41676;44.610;44.078;2023-04-30T22:27:20;2.97;;;1.30;;
55756;SDS011;41676;44.610;44.078;2023-04-30T22:32:21;4.05;;;1.30;;
55756;SDS011;41676;44.610;44.078;2023-04-30T22:37:21;3.30;;;1.38;;
55756;SDS011;41676;44.610;44.078;2023-04-30T22:42:23;4.40;;;1.63;;
55756;SDS011;41676;44.610;44.078;2023-04-30T22:47:25;6.20;;;1.63;;
55756;SDS011;41676;44.610;44.078;2023-04-30T22:52:27;3.63;;;1.27;;
55756;SDS011;41676;44.610;44.078;2023-04-30T22:57:32;3.67;;;1.58;;
55756;SDS011;41676;44.610;44.078;2023-04-30T23:02:32;4.78;;;1.60;;
55756;SDS011;41676;44.610;44.078;2023-04-30T23:07:33;3.08;;;1.40;;
55756;SDS011;41676;44.610;44.078;2023-04-30T23:12:34;3.53;;;1.70;;
55756;SDS011;41676;44.610;44.078;2023-04-30T23:17:35;4.05;;;1.42;;
55756;SDS011;41676;44.610;44.078;2023-04-30T23:22:36;4.90;;;1.60;;
55756;SDS011;41676;44.610;44.078;2023-04-30T23:27:37;3.95;;;1.50;;
55756;SDS011;41676;44.610;44.078;2023-04-30T23:32:37;3.83;;;1.63;;
55756;SDS011;41676;44.610;44.078;2023-04-30T23:37:38;10.52;;;1.90;;
55756;SDS011;41676;44.610;44.078;2023-04-30T23:42:39;3.50;;;1.58;;
55756;SDS011;41676;44.610;44.078;2023-04-30T23:47:40;4.25;;;1.80;;
55756;SDS011;41676;44.610;44.078;2023-04-30T23:52:41;2.97;;;1.55;;
55756;SDS011;41676;44.610;44.078;2023-04-30T23:57:42;5.25;;;1.65;;
